createdAt,value
2023-04-18T00:01:27.544Z,244.75
2023-04-18T00:03:55.319Z,257.48
2023-04-18T00:06:23.136Z,232.00
2023-04-18T00:08:50.998Z,243.17
2023-04-18T00:11:21.017Z,250.73
2023-04-18T00:13:48.888Z,224.17
2023-04-18T00:16:16.839Z,247.47
2023-04-18T00:18:44.665Z,241.73
2023-04-18T00:21:13.316Z,251.50
2023-04-18T00:23:41.672Z,236.83
2023-04-18T00:26:09.496Z,236.27
2023-04-18T00:28:38.835Z,246.20
2023-04-18T00:31:06.595Z,226.27
2023-04-18T00:33:35.133Z,226.77
2023-04-18T00:36:03.350Z,223.17
2023-04-18T00:38:31.066Z,237.07
2023-04-18T00:40:58.763Z,222.97
2023-04-18T00:43:26.775Z,226.87
2023-04-18T00:45:56.957Z,239.97
2023-04-18T00:48:25.233Z,228.63
2023-04-18T00:50:55.335Z,247.40
2023-04-18T00:53:23.237Z,223.00
2023-04-18T00:55:51.388Z,236.13
2023-04-18T00:58:19.657Z,229.10
2023-04-18T01:00:47.602Z,214.77
2023-04-18T01:03:18.194Z,206.53
2023-04-18T01:05:47.113Z,212.27
2023-04-18T01:08:14.859Z,214.77
2023-04-18T01:10:42.727Z,209.93
2023-04-18T01:13:12.092Z,228.33
2023-04-18T01:15:42.294Z,228.70
2023-04-18T01:18:10.534Z,231.10
2023-04-18T01:20:42.568Z,216.03
2023-04-18T01:23:11.158Z,227.93
2023-04-18T01:25:40.242Z,225.57
2023-04-18T01:28:08.297Z,230.00
2023-04-18T01:30:36.003Z,208.37
2023-04-18T01:33:04.882Z,227.60
2023-04-18T01:35:32.827Z,228.03
2023-04-18T01:38:01.119Z,210.03
2023-04-18T01:40:29.842Z,206.47
2023-04-18T01:42:58.838Z,194.40
2023-04-18T01:45:26.706Z,198.23
2023-04-18T01:47:54.336Z,215.53
2023-04-18T01:50:22.163Z,212.67
2023-04-18T01:52:49.778Z,185.47
2023-04-18T01:55:17.508Z,205.23
2023-04-18T01:57:45.266Z,183.80
2023-04-18T02:00:15.212Z,202.20
2023-04-18T02:02:43.099Z,193.83
2023-04-18T02:05:10.964Z,182.30
2023-04-18T02:07:40.099Z,204.03
2023-04-18T02:10:09.319Z,208.07
2023-04-18T02:12:36.967Z,188.33
2023-04-18T02:15:05.212Z,183.40
2023-04-18T02:17:37.829Z,185.93
2023-04-18T02:20:08.232Z,202.53
2023-04-18T02:22:37.551Z,190.07
2023-04-18T02:25:05.734Z,182.97
2023-04-18T02:27:33.408Z,181.70
2023-04-18T02:30:01.029Z,197.23
2023-04-18T02:32:28.765Z,198.67
2023-04-18T02:34:57.727Z,186.87
2023-04-18T02:37:25.377Z,172.20
2023-04-18T02:39:53.018Z,175.80
2023-04-18T02:42:20.844Z,200.50
2023-04-18T02:44:49.086Z,189.33
2023-04-18T02:47:17.161Z,196.70
2023-04-18T02:49:47.276Z,190.03
2023-04-18T02:52:16.419Z,183.00
2023-04-18T02:54:44.144Z,196.80
2023-04-18T02:57:17.987Z,182.13
2023-04-18T02:59:54.642Z,194.07
2023-04-18T03:02:41.191Z,174.30
2023-04-18T03:05:23.570Z,189.07
2023-04-18T03:07:53.754Z,184.53
2023-04-18T03:10:21.387Z,189.90
2023-04-18T03:12:49.000Z,199.33
2023-04-18T03:15:18.681Z,196.00
2023-04-18T03:17:47.425Z,192.43
2023-04-18T03:20:16.591Z,210.67
2023-04-18T03:22:44.410Z,198.57
2023-04-18T03:25:14.629Z,184.83
2023-04-18T03:27:50.432Z,194.03
2023-04-18T03:30:22.056Z,199.27
2023-04-18T03:32:53.904Z,191.37
2023-04-18T03:35:21.552Z,196.77
2023-04-18T03:37:49.901Z,200.87
2023-04-18T03:40:27.867Z,186.23
2023-04-18T03:43:00.700Z,201.70
2023-04-18T03:45:28.423Z,193.97
2023-04-18T03:47:56.963Z,194.97
2023-04-18T03:50:25.639Z,184.30
2023-04-18T03:52:55.432Z,213.27
2023-04-18T03:55:23.058Z,195.00
2023-04-18T03:57:52.936Z,185.27
2023-04-18T04:00:27.315Z,194.07
2023-04-18T04:03:07.626Z,191.40
2023-04-18T04:05:35.737Z,191.63
2023-04-18T04:08:03.406Z,199.77
2023-04-18T04:10:31.275Z,189.97
2023-04-18T04:13:00.546Z,193.63
2023-04-18T04:15:29.352Z,178.03
2023-04-18T04:18:03.210Z,179.37
2023-04-18T04:20:32.165Z,191.73
2023-04-18T04:23:07.926Z,189.43
2023-04-18T04:25:38.624Z,200.10
2023-04-18T04:28:15.960Z,182.10
2023-04-18T04:30:53.204Z,198.87
2023-04-18T04:33:25.015Z,185.37
2023-04-18T04:35:55.674Z,183.07
2023-04-18T04:38:24.006Z,183.60
2023-04-18T04:40:53.068Z,187.03
2023-04-18T04:43:22.048Z,192.03
2023-04-18T04:45:52.599Z,190.97
2023-04-18T04:48:24.802Z,191.87
2023-04-18T04:50:55.266Z,194.27
2023-04-18T04:53:23.470Z,190.13
2023-04-18T04:55:52.112Z,214.33
2023-04-18T04:58:19.914Z,181.83
2023-04-18T05:01:04.020Z,190.00
2023-04-18T05:03:32.912Z,192.23
2023-04-18T05:06:01.164Z,197.80
2023-04-18T05:08:28.802Z,199.23
2023-04-18T05:10:56.478Z,196.43
2023-04-18T05:13:24.058Z,182.23
2023-04-18T05:15:52.518Z,200.63
2023-04-18T05:18:21.676Z,197.33
2023-04-18T05:20:49.329Z,205.40
2023-04-18T05:23:17.066Z,200.97
2023-04-18T05:25:44.740Z,215.20
2023-04-18T05:28:12.356Z,222.80
2023-04-18T05:30:40.838Z,218.83
2023-04-18T05:33:08.563Z,225.07
2023-04-18T05:35:37.661Z,228.00
2023-04-18T05:38:05.239Z,211.27
2023-04-18T05:40:32.863Z,219.23
2023-04-18T05:43:01.321Z,229.97
2023-04-18T05:45:29.100Z,211.47
2023-04-18T05:47:57.145Z,225.97
2023-04-18T05:50:24.869Z,218.67
2023-04-18T05:52:53.814Z,219.00
2023-04-18T05:55:21.626Z,231.87
2023-04-18T05:57:49.233Z,245.73
2023-04-18T06:00:18.019Z,221.50
2023-04-18T06:02:45.804Z,230.40
2023-04-18T06:05:14.153Z,232.33
2023-04-18T06:07:41.990Z,205.10
2023-04-18T06:10:13.410Z,215.70
2023-04-18T06:12:41.500Z,225.97
2023-04-18T06:15:10.521Z,237.07
2023-04-18T06:17:38.276Z,228.43
2023-04-18T06:20:06.765Z,235.67
2023-04-18T06:22:34.819Z,232.70
2023-04-18T06:25:02.617Z,227.40
2023-04-18T06:27:32.163Z,232.50
2023-04-18T06:29:59.921Z,249.33
2023-04-18T06:32:27.584Z,232.67
2023-04-18T06:34:55.345Z,250.30
2023-04-18T06:37:23.417Z,245.33
2023-04-18T06:39:51.005Z,235.37
2023-04-18T06:42:20.207Z,239.20
2023-04-18T06:44:50.713Z,234.73
2023-04-18T06:47:18.743Z,236.37
2023-04-18T06:49:46.343Z,230.77
2023-04-18T06:52:13.968Z,222.07
2023-04-18T06:54:41.697Z,243.17
2023-04-18T06:57:09.875Z,244.33
2023-04-18T06:59:37.553Z,230.47
2023-04-18T07:02:06.492Z,234.70
2023-04-18T07:04:34.161Z,243.57
2023-04-18T07:07:03.697Z,244.53
2023-04-18T07:09:31.317Z,239.60
2023-04-18T07:11:59.065Z,235.33
2023-04-18T07:14:27.252Z,228.70
2023-04-18T07:16:55.017Z,263.70
2023-04-18T07:19:24.136Z,233.57
2023-04-18T07:21:51.761Z,233.17
2023-04-18T07:24:19.351Z,226.00
2023-04-18T07:26:47.032Z,242.93
2023-04-18T07:29:14.624Z,240.23
2023-04-18T07:31:42.261Z,245.53
2023-04-18T07:34:10.007Z,247.93
2023-04-18T07:36:39.036Z,235.10
2023-04-18T07:39:06.824Z,258.88
2023-04-18T07:41:34.774Z,267.05
2023-04-18T07:44:02.742Z,250.63
2023-04-18T07:46:32.234Z,239.18
2023-04-18T07:48:59.992Z,248.18
2023-04-18T07:51:31.318Z,247.07
2023-04-18T07:54:00.643Z,248.18
2023-04-18T07:56:28.939Z,267.23
2023-04-18T07:58:56.643Z,251.15
2023-04-18T08:01:26.990Z,253.90
2023-04-18T08:03:56.570Z,273.77
2023-04-18T08:06:24.369Z,264.20
2023-04-18T08:08:52.392Z,263.75
2023-04-18T08:11:21.566Z,260.67
2023-04-18T08:13:49.200Z,272.50
2023-04-18T08:16:17.661Z,265.70
2023-04-18T08:18:45.336Z,286.23
2023-04-18T08:21:13.148Z,291.15
2023-04-18T08:23:41.238Z,280.98
2023-04-18T08:26:08.853Z,272.05
2023-04-18T08:28:37.882Z,277.27
2023-04-18T08:31:06.320Z,289.02
2023-04-18T08:33:33.989Z,296.17
2023-04-18T08:36:01.629Z,279.50
2023-04-18T08:38:29.470Z,280.58
2023-04-18T08:40:57.144Z,278.35
2023-04-18T08:43:25.317Z,299.42
2023-04-18T08:45:59.264Z,293.42
2023-04-18T08:48:27.845Z,295.38
2023-04-18T08:50:58.350Z,301.83
2023-04-18T08:53:27.313Z,297.60
2023-04-18T08:55:56.155Z,297.85
2023-04-18T08:58:25.501Z,300.35
2023-04-18T09:00:55.279Z,291.48
2023-04-18T09:03:37.491Z,307.58
2023-04-18T09:06:11.430Z,295.05
2023-04-18T09:08:39.356Z,306.67
2023-04-18T09:11:28.620Z,292.45
2023-04-18T09:13:58.736Z,292.52
2023-04-18T09:16:29.137Z,293.70
2023-04-18T09:19:11.567Z,304.13
2023-04-18T09:21:40.327Z,299.88
2023-04-18T09:24:20.672Z,286.08
2023-04-18T09:26:49.845Z,298.67
2023-04-18T09:29:18.461Z,283.83
2023-04-18T09:31:59.757Z,290.55
2023-04-18T09:34:27.867Z,278.85
2023-04-18T09:37:09.497Z,296.52
2023-04-18T09:39:38.576Z,284.80
2023-04-18T09:42:06.950Z,269.30
2023-04-18T09:44:34.783Z,300.98
2023-04-18T09:47:03.756Z,296.30
2023-04-18T09:49:31.434Z,298.95
2023-04-18T09:52:00.463Z,302.50
2023-04-18T09:54:31.983Z,294.20
2023-04-18T09:57:01.046Z,306.88
2023-04-18T09:59:37.835Z,297.95
2023-04-18T10:02:16.169Z,312.95
2023-04-18T10:04:46.231Z,275.63
2023-04-18T10:07:15.901Z,307.38
2023-04-18T10:09:46.558Z,305.05
2023-04-18T10:12:15.020Z,310.25
2023-04-18T10:14:43.822Z,288.90
2023-04-18T10:17:14.953Z,288.77
2023-04-18T10:19:45.929Z,301.75
2023-04-18T10:22:14.208Z,290.05
2023-04-18T10:24:53.049Z,314.10
2023-04-18T10:27:56.380Z,318.77
2023-04-18T10:30:57.186Z,298.63
2023-04-18T10:33:33.608Z,280.60
2023-04-18T10:36:06.032Z,292.13
2023-04-18T10:38:34.957Z,294.45
2023-04-18T10:41:22.234Z,288.67
2023-04-18T10:44:11.383Z,290.08
2023-04-18T10:46:40.118Z,280.20
2023-04-18T10:49:16.398Z,303.95
2023-04-18T10:51:45.202Z,289.67
2023-04-18T10:54:18.140Z,296.15
2023-04-18T10:56:53.777Z,298.50
2023-04-18T10:59:23.643Z,293.02
2023-04-18T11:01:56.702Z,292.20
2023-04-18T11:04:26.313Z,284.23
2023-04-18T11:06:57.154Z,278.58
2023-04-18T11:09:25.915Z,282.75
2023-04-18T11:12:04.564Z,306.88
2023-04-18T11:14:40.683Z,270.75
2023-04-18T11:17:22.119Z,262.33
2023-04-18T11:19:51.573Z,275.02
2023-04-18T11:22:19.317Z,261.50
2023-04-18T11:24:47.017Z,259.55
2023-04-18T11:27:14.988Z,260.20
2023-04-18T11:29:42.746Z,263.10
2023-04-18T11:32:11.103Z,256.08
2023-04-18T11:34:38.746Z,269.05
2023-04-18T11:37:08.572Z,270.05
2023-04-18T11:39:37.066Z,263.13
2023-04-18T11:42:05.706Z,255.85
2023-04-18T11:44:36.205Z,258.08
2023-04-18T11:47:04.121Z,254.68
2023-04-18T11:49:33.184Z,262.00
2023-04-18T11:52:01.286Z,275.20
2023-04-18T11:54:43.988Z,268.02
2023-04-18T11:57:25.885Z,250.80
2023-04-18T11:59:54.830Z,255.75
2023-04-18T12:02:23.669Z,243.52
2023-04-18T12:04:56.945Z,263.98
2023-04-18T12:07:32.776Z,256.02
2023-04-18T12:10:01.860Z,264.58
2023-04-18T12:12:29.578Z,253.95
2023-04-18T12:15:05.428Z,259.08
2023-04-18T12:17:33.421Z,243.85
2023-04-18T12:20:05.984Z,247.10
2023-04-18T12:22:41.866Z,265.55
2023-04-18T12:25:22.829Z,250.48
2023-04-18T12:27:58.387Z,275.38
2023-04-18T12:30:28.115Z,272.10
2023-04-18T12:32:57.954Z,247.60
2023-04-18T12:35:26.360Z,250.02
2023-04-18T12:37:55.425Z,246.13
2023-04-18T12:40:26.362Z,245.80
2023-04-18T12:42:55.375Z,237.18
2023-04-18T12:45:24.000Z,254.95
2023-04-18T12:47:53.179Z,255.57
2023-04-18T12:50:22.812Z,256.45
2023-04-18T12:52:54.555Z,249.07
2023-04-18T12:55:24.468Z,230.68
2023-04-18T12:57:54.283Z,250.55
2023-04-18T13:00:23.322Z,228.02
2023-04-18T13:02:52.351Z,247.15
2023-04-18T13:05:21.580Z,243.82
2023-04-18T13:07:49.791Z,239.57
2023-04-18T13:10:19.441Z,247.70
2023-04-18T13:12:50.043Z,236.18
2023-04-18T13:15:18.223Z,236.25
2023-04-18T13:17:45.899Z,231.32
2023-04-18T13:20:13.843Z,234.90
2023-04-18T13:22:42.696Z,228.07
2023-04-18T13:25:11.574Z,230.73
2023-04-18T13:27:41.712Z,237.88
2023-04-18T13:30:11.930Z,253.00
2023-04-18T13:32:40.530Z,228.60
2023-04-18T13:35:09.654Z,238.13
2023-04-18T13:37:37.799Z,222.75
2023-04-18T13:40:07.028Z,232.38
2023-04-18T13:42:35.071Z,231.50
2023-04-18T13:45:03.001Z,234.80
2023-04-18T13:47:31.955Z,243.35
2023-04-18T13:49:59.591Z,245.38
2023-04-18T13:52:27.154Z,235.13
2023-04-18T13:54:54.836Z,239.40
2023-04-18T13:57:23.433Z,262.30
2023-04-18T13:59:51.233Z,223.20
2023-04-18T14:02:18.896Z,248.95
2023-04-18T14:04:48.014Z,234.27
2023-04-18T14:07:16.457Z,223.20
2023-04-18T14:09:44.124Z,233.13
2023-04-18T14:12:11.730Z,234.23
2023-04-18T14:14:39.380Z,223.15
2023-04-18T14:17:07.407Z,230.25
2023-04-18T14:19:35.694Z,228.05
2023-04-18T14:22:04.618Z,223.40
2023-04-18T14:24:32.239Z,227.23
2023-04-18T14:26:59.891Z,239.45
2023-04-18T14:29:27.496Z,209.38
2023-04-18T14:31:55.748Z,217.20
2023-04-18T14:34:23.334Z,212.95
2023-04-18T14:36:50.951Z,224.32
2023-04-18T14:39:19.873Z,209.68
2023-04-18T14:41:47.516Z,206.25
2023-04-18T14:44:15.364Z,209.20
2023-04-18T14:46:43.393Z,217.27
2023-04-18T14:49:11.382Z,217.35
2023-04-18T14:51:39.012Z,214.50
2023-04-18T14:54:06.781Z,211.95
2023-04-18T14:56:35.984Z,213.73
2023-04-18T14:59:03.790Z,212.00
2023-04-18T15:01:31.461Z,212.93
2023-04-18T15:03:59.362Z,210.30
2023-04-18T15:06:28.338Z,205.85
2023-04-18T15:08:57.152Z,219.82
2023-04-18T15:11:24.896Z,205.02
2023-04-18T15:13:53.918Z,208.38
2023-04-18T15:16:21.675Z,216.38
2023-04-18T15:18:49.271Z,204.35
2023-04-18T15:21:16.935Z,206.55
2023-04-18T15:23:44.577Z,217.80
2023-04-18T15:26:12.343Z,208.45
2023-04-18T15:28:40.013Z,208.93
2023-04-18T15:31:09.566Z,214.75
2023-04-18T15:33:37.289Z,194.07
2023-04-18T15:36:05.505Z,208.10
2023-04-18T15:38:33.350Z,220.68
2023-04-18T15:41:01.022Z,208.82
2023-04-18T15:43:28.646Z,207.95
2023-04-18T15:45:56.324Z,205.93
2023-04-18T15:48:25.299Z,199.82
2023-04-18T15:50:53.003Z,199.70
2023-04-18T15:53:20.791Z,205.88
2023-04-18T15:55:48.429Z,203.02
2023-04-18T15:58:16.083Z,207.75
2023-04-18T16:00:44.314Z,210.95
2023-04-18T16:03:12.218Z,216.45
2023-04-18T16:05:41.390Z,205.30
2023-04-18T16:08:09.408Z,202.73
2023-04-18T16:10:37.762Z,203.65
2023-04-18T16:13:06.627Z,213.25
2023-04-18T16:15:35.424Z,212.70
2023-04-18T16:18:03.340Z,217.02
2023-04-18T16:20:33.131Z,209.77
2023-04-18T16:23:02.104Z,198.93
2023-04-18T16:25:29.733Z,215.25
2023-04-18T16:27:57.343Z,197.63
2023-04-18T16:30:24.964Z,212.88
2023-04-18T16:32:52.734Z,207.88
2023-04-18T16:35:20.560Z,208.13
2023-04-18T16:37:48.461Z,206.57
2023-04-18T16:40:17.514Z,215.57
2023-04-18T16:42:45.266Z,220.05
2023-04-18T16:45:13.155Z,194.52
2023-04-18T16:47:40.900Z,219.63
2023-04-18T16:50:09.603Z,197.55
2023-04-18T16:52:37.217Z,201.05
2023-04-18T16:55:05.513Z,201.07
2023-04-18T16:57:34.532Z,204.07
2023-04-18T17:00:02.753Z,203.10
2023-04-18T17:02:30.565Z,209.82
2023-04-18T17:04:58.429Z,208.50
2023-04-18T17:07:26.187Z,210.18
2023-04-18T17:09:53.947Z,220.65
2023-04-18T17:12:22.135Z,232.68
2023-04-18T17:14:51.118Z,212.95
2023-04-18T17:17:18.723Z,229.00
2023-04-18T17:19:46.711Z,228.50
2023-04-18T17:22:14.337Z,227.85
2023-04-18T17:24:41.891Z,240.75
2023-04-18T17:27:09.570Z,216.25
2023-04-18T17:29:37.235Z,223.82
2023-04-18T17:32:06.793Z,209.43
2023-04-18T17:34:34.574Z,227.23
2023-04-18T17:37:02.928Z,222.25
2023-04-18T17:39:32.093Z,237.80
2023-04-18T17:42:00.234Z,229.50
2023-04-18T17:44:27.833Z,240.88
2023-04-18T17:46:55.485Z,232.32
2023-04-18T17:49:24.418Z,244.10
2023-04-18T17:51:52.055Z,250.45
2023-04-18T17:54:19.700Z,260.73
2023-04-18T17:56:47.344Z,250.73
2023-04-18T17:59:15.349Z,261.83
2023-04-18T18:01:43.276Z,263.75
2023-04-18T18:04:11.029Z,272.20
2023-04-18T18:06:40.630Z,277.40
2023-04-18T18:09:08.308Z,261.88
2023-04-18T18:11:36.390Z,256.75
2023-04-18T18:14:04.340Z,287.50
2023-04-18T18:16:32.282Z,270.38
2023-04-18T18:19:00.350Z,283.88
2023-04-18T18:21:28.695Z,278.55
2023-04-18T18:23:57.747Z,287.00
2023-04-18T18:26:26.414Z,275.02
2023-04-18T18:28:54.322Z,282.38
2023-04-18T18:31:24.608Z,296.38
2023-04-18T18:33:52.307Z,280.30
2023-04-18T18:36:19.961Z,277.65
2023-04-18T18:38:47.687Z,298.08
2023-04-18T18:41:16.737Z,295.27
2023-04-18T18:43:44.407Z,291.25
2023-04-18T18:46:12.112Z,272.70
2023-04-18T18:48:40.182Z,282.35
2023-04-18T18:51:08.311Z,288.52
2023-04-18T18:53:37.717Z,289.27
2023-04-18T18:56:08.537Z,278.67
2023-04-18T18:58:38.250Z,270.30
2023-04-18T19:01:06.607Z,303.88
2023-04-18T19:03:34.780Z,287.50
2023-04-18T19:06:03.806Z,275.77
2023-04-18T19:08:31.557Z,292.00
2023-04-18T19:10:59.265Z,293.13
2023-04-18T19:13:27.278Z,307.08
2023-04-18T19:15:56.359Z,310.25
2023-04-18T19:18:24.086Z,300.95
2023-04-18T19:20:51.776Z,294.85
2023-04-18T19:23:19.442Z,289.10
2023-04-18T19:25:47.203Z,313.65
2023-04-18T19:28:16.132Z,294.98
2023-04-18T19:30:43.837Z,293.38
2023-04-18T19:33:13.899Z,293.58
2023-04-18T19:35:42.989Z,294.38
2023-04-18T19:38:10.592Z,304.38
2023-04-18T19:40:38.572Z,309.58
2023-04-18T19:43:06.180Z,307.05
2023-04-18T19:45:33.961Z,297.30
2023-04-18T19:48:01.667Z,299.90
2023-04-18T19:50:31.217Z,308.23
2023-04-18T19:52:58.843Z,324.33
2023-04-18T19:55:26.416Z,309.02
2023-04-18T19:57:55.601Z,301.80
2023-04-18T20:00:23.326Z,307.23
2023-04-18T20:02:51.168Z,289.58
2023-04-18T20:05:19.293Z,289.15
2023-04-18T20:07:48.289Z,286.27
2023-04-18T20:10:15.914Z,301.15
2023-04-18T20:12:43.568Z,303.65
2023-04-18T20:15:12.212Z,291.65
2023-04-18T20:17:39.898Z,298.58
2023-04-18T20:20:10.430Z,308.63
2023-04-18T20:22:40.181Z,310.63
2023-04-18T20:25:09.829Z,299.52
2023-04-18T20:27:37.549Z,314.98
2023-04-18T20:30:06.679Z,311.55
2023-04-18T20:32:34.518Z,287.83
2023-04-18T20:35:02.863Z,320.33
2023-04-18T20:37:30.522Z,279.33
2023-04-18T20:39:58.649Z,306.83
2023-04-18T20:42:27.639Z,310.73
2023-04-18T20:44:55.222Z,310.67
2023-04-18T20:47:22.873Z,299.58
2023-04-18T20:49:50.667Z,299.20
2023-04-18T20:52:18.594Z,302.52
2023-04-18T20:54:46.242Z,300.33
2023-04-18T20:57:13.904Z,309.77
2023-04-18T20:59:42.937Z,298.13
2023-04-18T21:02:10.636Z,304.10
2023-04-18T21:04:38.605Z,305.55
2023-04-18T21:07:06.274Z,296.20
2023-04-18T21:09:36.881Z,298.73
2023-04-18T21:12:05.349Z,291.42
2023-04-18T21:14:33.073Z,299.92
2023-04-18T21:17:02.206Z,286.00
2023-04-18T21:19:29.831Z,304.17
2023-04-18T21:21:57.597Z,302.95
2023-04-18T21:24:25.272Z,313.00
2023-04-18T21:26:52.858Z,282.25
2023-04-18T21:29:21.941Z,303.85
2023-04-18T21:31:50.170Z,297.13
2023-04-18T21:34:19.123Z,304.33
2023-04-18T21:36:46.743Z,295.63
2023-04-18T21:39:14.394Z,300.70
2023-04-18T21:41:42.152Z,298.17
2023-04-18T21:44:10.475Z,279.10
2023-04-18T21:46:38.328Z,302.80
2023-04-18T21:49:05.909Z,300.70
2023-04-18T21:51:34.914Z,291.40
2023-04-18T21:54:02.751Z,291.65
2023-04-18T21:56:30.680Z,290.40
2023-04-18T21:58:58.289Z,285.30
2023-04-18T22:01:26.044Z,291.88
2023-04-18T22:03:53.965Z,285.20
2023-04-18T22:06:22.998Z,288.73
2023-04-18T22:08:52.109Z,281.17
2023-04-18T22:11:20.097Z,279.10
2023-04-18T22:13:47.675Z,276.48
2023-04-18T22:16:15.695Z,277.92
2023-04-18T22:18:43.360Z,263.20
2023-04-18T22:21:11.285Z,281.25
2023-04-18T22:23:38.885Z,282.63
2023-04-18T22:26:07.891Z,284.45
2023-04-18T22:28:35.540Z,280.50
2023-04-18T22:31:03.276Z,278.92
2023-04-18T22:33:30.974Z,292.08
2023-04-18T22:35:58.589Z,276.90
2023-04-18T22:38:26.242Z,275.20
2023-04-18T22:40:53.896Z,282.38
2023-04-18T22:43:24.302Z,300.60
2023-04-18T22:45:52.409Z,268.98
2023-04-18T22:48:20.110Z,273.98
2023-04-18T22:50:47.758Z,277.50
2023-04-18T22:53:15.464Z,293.30
2023-04-18T22:55:44.553Z,275.48
2023-04-18T22:58:13.361Z,273.60
2023-04-18T23:00:42.311Z,271.48
2023-04-18T23:03:10.196Z,293.52
2023-04-18T23:05:38.068Z,269.55
2023-04-18T23:08:06.827Z,298.38
2023-04-18T23:10:34.983Z,280.08
2023-04-18T23:13:02.636Z,261.40
2023-04-18T23:15:30.498Z,275.80
2023-04-18T23:17:59.529Z,270.70
2023-04-18T23:20:27.258Z,282.67
2023-04-18T23:22:55.851Z,287.90
2023-04-18T23:25:23.665Z,273.38
2023-04-18T23:27:51.514Z,255.95
2023-04-18T23:30:19.134Z,255.73
2023-04-18T23:32:46.784Z,270.30
2023-04-18T23:35:15.828Z,270.35
2023-04-18T23:37:43.555Z,263.63
2023-04-18T23:40:11.263Z,264.35
2023-04-18T23:42:38.838Z,269.80
2023-04-18T23:45:07.249Z,264.58
2023-04-18T23:47:35.010Z,274.58
2023-04-18T23:50:02.940Z,290.05
2023-04-18T23:52:31.880Z,278.73
2023-04-18T23:55:00.467Z,281.38
2023-04-18T23:57:28.172Z,275.05
2023-04-18T23:59:55.908Z,264.85
